Seven Hills, Ohio
Current Conditions -  °F | °C
As of 4:53 PM on Friday 28 Nov 2014 (Local Time) from KBKL Reporting Station
Overcast Overcast  
Wind Chill: 19°   Ceiling: 3300
Heat Index: 28°   Visibility: 10mi
Dew Point: 17°   Wind: 10mph
Humidity: 63%   Direction: 190°S
Pressure: 30.23"   Gusts: NA
Location:  41.3833°N, 81.6531°W
Report Text: KBKL 282153Z 19009KT 10SM BKN033 OVC100 M02/M08 A3023 RMK AO2 SLP244 T10221083
Loading
Personal Weather Stations






























Interactive Weather Map New forecast layout! Learn more

10-Day Weather Forecast

Advertisements
Track Severe Weather on mobile